Aérodrome :
LOGIN :

S'inscrire | Disclaimer

   EN    FR    IT 

 










Légende :    VFR   VFR Marginal   IFR   IFR Intensif   IFR Très Intensif
Visi : 
Plafond : 
>= 8 km
>= 3000ft
5 à 8 km
1000 à 3000 ft
1500m à 5 km
500 à 1000 ft
800 à 1500m
200 à 500 ft
< 800m
< 200 ft
Symboles :   Orages  Brouillard  Fortes neiges  Fortes précipitations  Vent > 20 kt
SIGMETs :   Divers  Orages  Givrage  Turbulence  Onde Orograph.  Cendres Volcan.






- Altitude de l'aérodrome : 13 ft
- Code IATA : OST


EBOS - Oostend bruges Int.

DERNIER METAR :
  • 091820Z 05003KT 9999 FEW018 02/M00 Q1007 NOSIG

METARs EXPIRÉS :
  • 091750Z 03004KT 9999 FEW018 02/M00 Q1006 NOSIG
  • 091720Z 35004KT 9999 FEW018 SCT048 03/M00 Q1006 NOSIG
  • 091650Z 36004KT 9999 FEW018TCU 04/00 Q1006 NOSIG
  • 091620Z 32005KT 9999 FEW014TCU 03/01 Q1006 NOSIG

TAF TAF EBOS
Valide du 09 à 12h jusqu'au 10 à 18h UTC


091710Z 0912/1018 28004KT 9999 SCT025
PROB30
TEMPO 0918/0922 4000 SHRA SHRAGS SHRASN BKN014CB
TEMPO 0922/1010 BKN007
PROB40
TEMPO 0923/1010 2000 BR BKN003
PROB30
TEMPO 1002/1009 0400 FZFG BKN001



MET'MAP, la Météo Aéronautique d'un coup d'oeil ! - Copyright ORBIFLY Décembre 2007 - Disclaimer

ORBIFLY MET'MAP TEAM :

Programmation & Développement : Alexandra Zaïnal
Sur une idée originale de : Baudouin d'Aumeries
Soutien technique & logistique : Manuel Goepfert
Assistance : Marc-Olivier Méhu




SOURCES & CREDITS :

   NOAA